Estación de Odessa

Ultimos registro cada 15 minutos 93
Estación Fecha / Hora Temperatura Humedad Lluvia Velocidad Dirección Radiación Presion
93 Odessa 06-05-2026 23:00 10,6 88 0 1,3 224 0 1024,1
92 Odessa 06-05-2026 22:45 10,8 89 0 0,4 209 0 1023,9
91 Odessa 06-05-2026 22:30 10,9 89 0 1,3 235 0 1023,8
90 Odessa 06-05-2026 22:15 11,1 89 0 0,4 218 0 1023,5
89 Odessa 06-05-2026 22:00 11,2 89 0 0,4 187 0 1023,3
88 Odessa 06-05-2026 21:45 11,2 89 0 0,4 211 0 1023,3
87 Odessa 06-05-2026 21:30 11,4 90 0 0 211 0 1023,3
86 Odessa 06-05-2026 21:15 11,4 90 0 0 217 0 1023,4
85 Odessa 06-05-2026 21:00 11,6 90 0 0 244 0 1023,3
84 Odessa 06-05-2026 20:45 11,7 88 0 0 244 0 1023,2
83 Odessa 06-05-2026 20:30 11,8 88 0 0 241 0 1023,2
82 Odessa 06-05-2026 20:15 11,9 89 0 0,4 223 0 1022,9
81 Odessa 06-05-2026 20:00 12 90 0 0 229 0 1022,7
80 Odessa 06-05-2026 19:45 12,2 90 0 0 211 0 1022,6
79 Odessa 06-05-2026 19:30 12,2 90 0 0 212 0 1022,3
78 Odessa 06-05-2026 19:15 12,3 90 0 0,4 177 0 1022,2
77 Odessa 06-05-2026 19:00 12,2 90 0 0 240 0 1021,9
76 Odessa 06-05-2026 18:45 12,1 91 0 0 209 0 1021,8
75 Odessa 06-05-2026 18:30 12,2 92 0 0 209 0 1021,7
74 Odessa 06-05-2026 18:15 12,3 92 0 0 209 0 1021,5
73 Odessa 06-05-2026 18:00 12,3 91 0 0 209 0 1021,3
72 Odessa 06-05-2026 17:45 12,4 91 0 0 177 11 1021,1
71 Odessa 06-05-2026 17:30 12,4 91 0 0 177 12 1021
70 Odessa 06-05-2026 17:15 12,6 90 0 0 245 26 1020,8
69 Odessa 06-05-2026 17:00 12,7 90 0 0 241 40 1020,4
68 Odessa 06-05-2026 16:45 12,9 90 0 0,9 243 72 1020,6
67 Odessa 06-05-2026 16:30 13,1 91 0 1,3 245 146 1020,4
66 Odessa 06-05-2026 16:15 13,2 92 0,2 1,8 264 86 1020,3
65 Odessa 06-05-2026 16:00 13,4 92 0 1,8 249 39 1020,3
64 Odessa 06-05-2026 15:45 14,1 90 0,6 1,3 256 49 1020
63 Odessa 06-05-2026 15:30 15,3 87 0 0,9 302 130 1019,9
62 Odessa 06-05-2026 15:15 15,1 88 0 2,7 284 236 1019,8
61 Odessa 06-05-2026 15:00 15 90 0 1,3 278 209 1019,5
60 Odessa 06-05-2026 14:45 14,7 90 0 0,4 258 114 1019,2
59 Odessa 06-05-2026 14:30 14,6 90 0 1,3 228 104 1019
58 Odessa 06-05-2026 14:15 14,7 91 0 1,3 283 163 1019
57 Odessa 06-05-2026 14:00 14,3 92 0 2,2 270 218 1018,6
56 Odessa 06-05-2026 13:45 14,3 93 0 1,3 287 234 1018,3
55 Odessa 06-05-2026 13:30 14,2 95 0 3,6 280 176 1018,2
54 Odessa 06-05-2026 13:15 14,2 96 0 1,3 306 132 1017,9
53 Odessa 06-05-2026 13:00 13,9 96 0 1,3 334 220 1017,7
52 Odessa 06-05-2026 12:45 13,6 96 0,2 0,9 323 47 1017,3
51 Odessa 06-05-2026 12:30 13,4 95 0,2 2,2 12 116 1017
50 Odessa 06-05-2026 12:15 13,3 96 0,2 1,8 15 62 1016,8
49 Odessa 06-05-2026 12:00 13,1 95 0,6 2,2 35 53 1016,7
48 Odessa 06-05-2026 11:45 13 95 0 0,4 54 23 1016,7
47 Odessa 06-05-2026 11:30 12,8 95 0,4 1,3 46 14 1016,7
46 Odessa 06-05-2026 11:15 12,6 95 0 0,9 36 9 1016,8
45 Odessa 06-05-2026 11:00 12,4 95 0 2,7 36 32 1016,6
44 Odessa 06-05-2026 10:45 12,3 95 0,4 0,4 36 33 1016,5
43 Odessa 06-05-2026 10:30 12,2 95 0 2,2 9 62 1016,3
42 Odessa 06-05-2026 10:15 11,9 95 0,4 3,6 62 100 1016
41 Odessa 06-05-2026 10:00 11,7 95 0,4 2,2 54 23 1015,6
40 Odessa 06-05-2026 09:45 11,6 95 0,8 0,9 43 14 1015,6
39 Odessa 06-05-2026 09:30 11,6 94 1,4 0,9 57 5 1015,7
38 Odessa 06-05-2026 09:15 11,4 94 1,8 1,3 38 7 1015,5
37 Odessa 06-05-2026 09:00 11,4 94 2 1,3 36 0 1015,3
36 Odessa 06-05-2026 08:45 11,5 94 2,4 1,3 360 0 1015,2
35 Odessa 06-05-2026 08:30 11,7 93 0,2 1,3 44 0 1015
34 Odessa 06-05-2026 08:15 11,8 93 0,8 4 47 32 1014,9
33 Odessa 06-05-2026 08:00 11,8 92 0,8 1,8 24 7 1014,8
32 Odessa 06-05-2026 07:45 12,1 91 0,4 2,2 344 0 1015,1
31 Odessa 06-05-2026 07:30 12,2 91 0 2,7 341 0 1014,9
30 Odessa 06-05-2026 07:15 12,3 91 1,2 4 346 0 1014,6
29 Odessa 06-05-2026 07:00 12,3 89 0,6 1,3 339 0 1014,2
28 Odessa 06-05-2026 06:45 13,1 86 0,4 2,2 11 0 1014,2
27 Odessa 06-05-2026 06:30 13,5 84 0 1,8 341 0 1014,6
26 Odessa 06-05-2026 06:15 13,2 85 0 0,9 21 0 1014,1
25 Odessa 06-05-2026 06:00 13,2 84 0 0,4 31 0 1014,2
24 Odessa 06-05-2026 05:45 13,2 84 0 2,2 38 0 1013,9
23 Odessa 06-05-2026 05:30 13,2 85 0 2,2 56 0 1014,2
22 Odessa 06-05-2026 05:15 12,9 85 0 2,7 60 0 1014,1
21 Odessa 06-05-2026 05:00 13,1 85 0 2,2 60 0 1014,3
20 Odessa 06-05-2026 04:45 12,9 86 0 3,6 31 0 1014,1
19 Odessa 06-05-2026 04:30 12,8 86 0 2,7 58 0 1014,1
18 Odessa 06-05-2026 04:15 12,6 87 0 1,8 51 0 1014,1
17 Odessa 06-05-2026 04:00 12,2 89 0 2,2 41 0 1014,3
16 Odessa 06-05-2026 03:45 11,9 90 0 0,9 51 0 1014,5
15 Odessa 06-05-2026 03:30 11,7 91 0 1,3 78 0 1014,7
14 Odessa 06-05-2026 03:15 11,6 92 0 1,8 54 0 1014,7
13 Odessa 06-05-2026 03:00 11,3 92 0 1,3 57 0 1014,9
12 Odessa 06-05-2026 02:45 11,3 92 0 2,2 45 0 1014,9
11 Odessa 06-05-2026 02:30 11,5 92 0 1,3 64 0 1014,8
10 Odessa 06-05-2026 02:15 11,8 91 0 1,3 44 0 1014,9
9 Odessa 06-05-2026 02:00 11,8 91 0 0,9 66 0 1015,1
8 Odessa 06-05-2026 01:45 12 91 0 2,2 34 0 1015,2
7 Odessa 06-05-2026 01:30 12,1 91 0 0,9 26 0 1015,1
6 Odessa 06-05-2026 01:15 12,2 91 0 0,9 12 0 1015,1
5 Odessa 06-05-2026 01:00 12,3 90 0 0,9 34 0 1015,1
4 Odessa 06-05-2026 00:45 12,5 90 0 0,4 40 0 1015
3 Odessa 06-05-2026 00:30 12,7 89 0 1,3 7 0 1015,1
2 Odessa 06-05-2026 00:15 12,9 89 0 1,3 58 0 1014,9
1 Odessa 06-05-2026 00:00 13,1 89 0 3,6 27 0 1014,9